createdAt,value
2023-05-15T00:01:35.901Z,21.75
2023-05-15T00:04:39.025Z,20.25
2023-05-15T00:07:41.933Z,20.50
2023-05-15T00:10:57.369Z,19.00
2023-05-15T00:14:03.701Z,18.75
2023-05-15T00:17:06.633Z,18.00
2023-05-15T00:20:10.099Z,18.50
2023-05-15T00:23:12.907Z,19.50
2023-05-15T00:26:16.048Z,17.00
2023-05-15T00:29:18.864Z,17.00
2023-05-15T00:32:21.458Z,19.00
2023-05-15T00:35:24.144Z,17.75
2023-05-15T00:38:26.817Z,17.50
2023-05-15T00:41:32.682Z,19.75
2023-05-15T00:44:36.085Z,18.00
2023-05-15T00:47:40.929Z,17.00
2023-05-15T00:50:43.641Z,19.50
2023-05-15T00:53:46.396Z,18.75
2023-05-15T00:56:50.049Z,18.75
2023-05-15T00:59:53.249Z,16.50
2023-05-15T01:02:55.704Z,17.50
2023-05-15T01:05:58.489Z,17.75
2023-05-15T01:09:07.139Z,16.75
2023-05-15T01:12:10.801Z,17.50
2023-05-15T01:15:13.360Z,14.50
2023-05-15T01:18:16.521Z,15.50
2023-05-15T01:21:36.461Z,15.75
2023-05-15T01:24:59.757Z,20.00
2023-05-15T01:28:10.092Z,17.00
2023-05-15T01:31:19.526Z,15.00
2023-05-15T01:34:24.326Z,17.00
2023-05-15T01:37:29.648Z,17.50
2023-05-15T01:40:33.584Z,14.75
2023-05-15T01:43:40.424Z,17.00
2023-05-15T01:46:46.829Z,13.50
2023-05-15T01:49:51.496Z,18.50
2023-05-15T01:52:59.101Z,14.00
2023-05-15T01:56:04.327Z,16.00
2023-05-15T01:59:07.633Z,15.50
2023-05-15T02:02:11.409Z,14.50
2023-05-15T02:05:14.551Z,15.00
2023-05-15T02:08:17.357Z,15.25
2023-05-15T02:11:20.176Z,14.75
2023-05-15T02:14:25.349Z,17.75
2023-05-15T02:17:28.866Z,16.50
2023-05-15T02:20:31.525Z,20.25
2023-05-15T02:23:34.172Z,17.25
2023-05-15T02:26:46.677Z,15.25
2023-05-15T02:30:12.504Z,15.25
2023-05-15T02:33:31.400Z,17.00
2023-05-15T02:36:36.649Z,14.75
2023-05-15T02:39:41.189Z,13.75
2023-05-15T02:42:44.802Z,15.50
2023-05-15T02:45:48.155Z,15.00
2023-05-15T02:48:51.104Z,16.00
2023-05-15T02:51:55.476Z,16.75
2023-05-15T02:54:58.080Z,16.75
2023-05-15T02:58:00.916Z,15.50
2023-05-15T03:01:04.812Z,16.75
2023-05-15T03:04:07.719Z,15.00
2023-05-15T03:07:10.099Z,13.75
2023-05-15T03:10:12.773Z,16.50
2023-05-15T03:13:15.216Z,16.50
2023-05-15T03:16:17.878Z,17.50
2023-05-15T03:19:20.385Z,18.00
2023-05-15T03:22:23.065Z,15.75
2023-05-15T03:25:26.124Z,19.25
2023-05-15T03:28:29.278Z,15.50
2023-05-15T03:31:32.787Z,15.50
2023-05-15T03:34:35.490Z,15.00
2023-05-15T03:37:37.920Z,12.75
2023-05-15T03:40:41.063Z,16.50
2023-05-15T03:43:43.363Z,16.50
2023-05-15T03:46:45.980Z,13.75
2023-05-15T03:49:48.287Z,15.75
2023-05-15T03:52:51.027Z,13.25
2023-05-15T03:55:54.255Z,15.00
2023-05-15T03:58:57.031Z,17.25
2023-05-15T04:02:04.938Z,12.00
2023-05-15T04:05:09.101Z,15.00
2023-05-15T04:08:12.684Z,13.50
2023-05-15T04:11:15.903Z,15.50
2023-05-15T04:14:18.700Z,16.75
2023-05-15T04:17:21.446Z,15.75
2023-05-15T04:20:24.861Z,15.00
2023-05-15T04:23:27.530Z,16.00
2023-05-15T04:26:30.119Z,14.25
2023-05-15T04:29:33.067Z,15.00
2023-05-15T04:32:36.261Z,15.75
2023-05-15T04:35:39.298Z,12.50
2023-05-15T04:38:41.573Z,17.25
2023-05-15T04:41:44.336Z,15.50
2023-05-15T04:44:47.954Z,12.25
2023-05-15T04:47:51.265Z,15.75
2023-05-15T04:50:53.853Z,12.25
2023-05-15T04:53:56.506Z,12.75
2023-05-15T04:56:58.766Z,15.00
2023-05-15T05:00:01.876Z,17.25
2023-05-15T05:03:05.112Z,16.00
2023-05-15T05:06:08.101Z,15.25
2023-05-15T05:09:10.949Z,17.25
2023-05-15T05:12:13.706Z,16.50
2023-05-15T05:15:16.202Z,16.25
2023-05-15T05:18:18.961Z,13.75
2023-05-15T05:21:21.358Z,14.50
2023-05-15T05:24:24.307Z,16.00
2023-05-15T05:27:27.104Z,17.25
2023-05-15T05:30:29.829Z,13.75
2023-05-15T05:33:32.210Z,15.25
2023-05-15T05:36:37.118Z,15.25
2023-05-15T05:39:39.419Z,18.00
2023-05-15T05:42:42.394Z,16.75
2023-05-15T05:45:44.833Z,17.25
2023-05-15T05:48:47.530Z,15.00
2023-05-15T05:51:49.864Z,16.50
2023-05-15T05:54:52.608Z,16.00
2023-05-15T05:57:55.085Z,18.00
2023-05-15T06:00:57.953Z,15.75
2023-05-15T06:04:00.430Z,12.25
2023-05-15T06:07:03.571Z,18.00
2023-05-15T06:10:07.786Z,17.50
2023-05-15T06:13:10.446Z,17.50
2023-05-15T06:16:12.802Z,13.25
2023-05-15T06:19:15.957Z,16.00
2023-05-15T06:22:18.357Z,19.50
2023-05-15T06:25:21.311Z,14.00
2023-05-15T06:28:23.698Z,14.25
2023-05-15T06:31:26.741Z,16.50
2023-05-15T06:34:29.209Z,14.50
2023-05-15T06:37:34.108Z,17.00
2023-05-15T06:40:36.577Z,12.25
2023-05-15T06:43:39.335Z,17.25
2023-05-15T06:46:41.832Z,16.50
2023-05-15T06:49:44.690Z,16.75
2023-05-15T06:52:47.111Z,16.50
2023-05-15T06:55:49.848Z,15.75
2023-05-15T06:58:52.188Z,19.00
2023-05-15T07:01:56.157Z,18.75
2023-05-15T07:04:58.899Z,19.25
2023-05-15T07:08:01.714Z,18.75
2023-05-15T07:11:04.538Z,16.00
2023-05-15T07:14:07.290Z,18.50
2023-05-15T07:17:10.097Z,17.25
2023-05-15T07:20:12.947Z,20.50
2023-05-15T07:23:15.376Z,18.00
2023-05-15T07:26:28.666Z,18.75
2023-05-15T07:29:37.008Z,17.75
2023-05-15T07:32:39.781Z,19.75
2023-05-15T07:35:42.599Z,20.25
2023-05-15T07:38:45.391Z,20.75
2023-05-15T07:41:48.185Z,19.50
2023-05-15T07:44:51.100Z,23.50
2023-05-15T07:47:53.522Z,20.00
2023-05-15T07:50:57.345Z,20.75
2023-05-15T07:54:00.938Z,20.50
2023-05-15T07:57:03.792Z,25.25
2023-05-15T08:00:13.228Z,19.00
2023-05-15T08:06:19.522Z,24.50
2023-05-15T08:09:22.179Z,21.50
2023-05-15T08:12:24.665Z,19.50
2023-05-15T08:15:27.558Z,23.50
2023-05-15T08:18:30.104Z,21.75
2023-05-15T08:21:32.860Z,24.50
2023-05-15T08:24:35.419Z,20.25
2023-05-15T08:27:38.239Z,22.00
2023-05-15T08:30:40.761Z,22.00
2023-05-15T08:33:43.544Z,21.25
2023-05-15T08:36:48.766Z,25.25
2023-05-15T08:39:51.463Z,21.00
2023-05-15T08:42:55.785Z,22.25
2023-05-15T08:45:58.749Z,25.75
2023-05-15T08:49:05.550Z,25.00
2023-05-15T08:52:08.884Z,23.00
2023-05-15T08:55:11.893Z,24.25
2023-05-15T08:58:14.608Z,24.00
2023-05-15T09:01:17.223Z,22.50
2023-05-15T09:04:20.028Z,26.50
2023-05-15T09:07:23.373Z,25.50
2023-05-15T09:10:26.355Z,22.50
2023-05-15T09:13:28.849Z,25.00
2023-05-15T09:16:31.736Z,24.75
2023-05-15T09:19:40.202Z,20.50
2023-05-15T09:22:42.831Z,27.00
2023-05-15T09:25:45.299Z,23.00
2023-05-15T09:28:49.325Z,23.50
2023-05-15T09:31:52.318Z,27.25
2023-05-15T09:34:54.986Z,23.75
2023-05-15T09:38:01.178Z,24.75
2023-05-15T09:41:08.237Z,27.25
2023-05-15T09:44:21.448Z,25.75
2023-05-15T09:47:24.717Z,12.25
2023-05-15T09:50:34.883Z,26.50
2023-05-15T09:53:38.961Z,21.75
2023-05-15T09:56:43.464Z,26.75
2023-05-15T09:59:47.965Z,25.50
2023-05-15T10:02:50.423Z,25.00
2023-05-15T10:06:01.196Z,23.25
2023-05-15T10:09:04.292Z,25.50
2023-05-15T10:12:08.724Z,27.50
2023-05-15T10:15:11.968Z,30.00
2023-05-15T10:18:15.152Z,27.00
2023-05-15T10:21:18.586Z,27.75
2023-05-15T10:24:21.684Z,26.75
2023-05-15T10:27:24.333Z,30.75
2023-05-15T10:30:27.332Z,29.50
2023-05-15T10:33:30.793Z,26.75
2023-05-15T10:36:34.666Z,29.75
2023-05-15T10:39:38.549Z,29.25
2023-05-15T10:42:43.458Z,28.75
2023-05-15T10:45:46.442Z,26.25
2023-05-15T10:48:49.382Z,29.75
2023-05-15T10:51:53.001Z,25.25
2023-05-15T10:54:57.059Z,28.00
2023-05-15T10:57:59.914Z,31.75
2023-05-15T11:01:02.630Z,23.00
2023-05-15T11:04:12.446Z,29.50
2023-05-15T11:07:16.871Z,28.25
2023-05-15T11:10:30.860Z,30.00
2023-05-15T11:14:10.423Z,32.50
2023-05-15T11:17:15.670Z,26.00
2023-05-15T11:20:18.591Z,31.75
2023-05-15T11:23:23.396Z,26.00
2023-05-15T11:26:35.142Z,31.00
2023-05-15T11:29:37.451Z,30.50
2023-05-15T11:32:50.482Z,28.25
2023-05-15T11:36:00.769Z,32.25
2023-05-15T11:39:10.670Z,31.00
2023-05-15T11:42:13.778Z,29.75
2023-05-15T11:45:16.550Z,30.00
2023-05-15T11:48:19.963Z,30.50
2023-05-15T11:51:25.300Z,30.50
2023-05-15T11:54:27.925Z,30.00
2023-05-15T11:57:30.563Z,28.25
2023-05-15T12:00:33.044Z,26.75
2023-05-15T12:03:36.654Z,26.00
2023-05-15T12:06:39.686Z,23.75
2023-05-15T12:09:42.510Z,28.25
2023-05-15T12:12:48.818Z,24.25
2023-05-15T12:15:51.728Z,24.00
2023-05-15T12:18:56.689Z,24.00
2023-05-15T12:21:59.518Z,21.00
2023-05-15T12:25:01.954Z,21.25
2023-05-15T12:28:05.741Z,21.25
2023-05-15T12:31:10.986Z,22.25
2023-05-15T12:34:14.424Z,20.50
2023-05-15T12:37:21.080Z,19.50
2023-05-15T12:40:24.513Z,18.50
2023-05-15T12:43:27.419Z,21.50
2023-05-15T12:46:32.062Z,20.00
2023-05-15T12:49:37.768Z,22.50
2023-05-15T12:52:41.212Z,19.50
2023-05-15T12:55:47.396Z,20.00
2023-05-15T12:58:53.065Z,17.25
2023-05-15T13:01:55.554Z,20.50
2023-05-15T13:04:58.571Z,23.00
2023-05-15T13:08:02.939Z,18.25
2023-05-15T13:11:05.594Z,20.75
2023-05-15T13:14:17.797Z,23.00
2023-05-15T13:17:22.412Z,19.75
2023-05-15T13:20:25.358Z,18.25
2023-05-15T13:23:28.321Z,19.00
2023-05-15T13:26:31.087Z,23.75
2023-05-15T13:29:33.873Z,17.75
2023-05-15T13:32:37.173Z,21.75
2023-05-15T13:35:41.468Z,25.00
2023-05-15T13:38:43.884Z,26.50
2023-05-15T13:41:46.685Z,27.75
2023-05-15T13:44:49.019Z,25.00
2023-05-15T13:47:52.351Z,29.25
2023-05-15T13:50:54.826Z,29.75
2023-05-15T13:53:57.456Z,27.00
2023-05-15T13:57:00.547Z,26.75
2023-05-15T14:00:05.613Z,27.00
2023-05-15T14:03:08.248Z,33.50
2023-05-15T14:06:11.177Z,32.50
2023-05-15T14:09:13.662Z,35.00
2023-05-15T14:12:16.382Z,31.25
2023-05-15T14:15:19.138Z,30.75
2023-05-15T14:18:21.923Z,34.75
2023-05-15T14:21:24.371Z,31.50
2023-05-15T14:24:27.100Z,33.25
2023-05-15T14:27:31.279Z,33.75
2023-05-15T14:30:34.539Z,32.00
2023-05-15T14:33:37.001Z,31.75
2023-05-15T14:36:39.708Z,34.00
2023-05-15T14:39:42.559Z,36.00
2023-05-15T14:42:45.187Z,32.75
2023-05-15T14:45:47.619Z,34.25
2023-05-15T14:48:50.376Z,34.25
2023-05-15T14:51:52.930Z,36.25
2023-05-15T14:55:07.798Z,34.50
2023-05-15T14:58:11.977Z,32.50
2023-05-15T15:01:15.581Z,35.00
2023-05-15T15:04:18.059Z,28.75
2023-05-15T15:07:21.167Z,33.75
2023-05-15T15:10:23.835Z,36.50
2023-05-15T15:13:27.532Z,34.00
2023-05-15T15:16:30.102Z,35.50
2023-05-15T15:19:34.022Z,35.50
2023-05-15T15:22:36.432Z,35.25
2023-05-15T15:25:39.212Z,32.25
2023-05-15T15:28:41.796Z,34.00
2023-05-15T15:31:45.041Z,32.25
2023-05-15T15:34:47.489Z,33.00
2023-05-15T15:37:50.616Z,33.00
2023-05-15T15:40:53.148Z,34.50
2023-05-15T15:43:56.220Z,35.75
2023-05-15T15:46:58.880Z,33.50
2023-05-15T15:50:01.729Z,35.50
2023-05-15T15:53:04.134Z,32.50
2023-05-15T15:56:07.700Z,33.75
2023-05-15T15:59:10.122Z,31.50
2023-05-15T16:02:13.759Z,28.75
2023-05-15T16:05:16.517Z,31.00
2023-05-15T16:08:19.604Z,32.75
2023-05-15T16:11:22.421Z,33.50
2023-05-15T16:14:27.002Z,34.25
2023-05-15T16:17:29.505Z,34.00
2023-05-15T16:20:34.313Z,33.00
2023-05-15T16:23:39.724Z,33.75
2023-05-15T16:26:42.554Z,31.25
2023-05-15T16:29:46.183Z,31.00
2023-05-15T16:32:49.079Z,32.75
2023-05-15T16:35:52.589Z,33.25
2023-05-15T16:38:55.689Z,31.75
2023-05-15T16:41:58.234Z,32.75
2023-05-15T16:45:01.191Z,33.25
2023-05-15T16:48:04.473Z,29.50
2023-05-15T16:51:07.200Z,27.75
2023-05-15T16:54:11.025Z,34.25
2023-05-15T16:57:14.055Z,31.25
2023-05-15T17:00:17.224Z,31.75
2023-05-15T17:03:20.627Z,33.75
2023-05-15T17:06:23.014Z,33.25
2023-05-15T17:09:25.881Z,33.50
2023-05-15T17:12:28.494Z,32.25
2023-05-15T17:15:31.233Z,31.25
2023-05-15T17:18:33.964Z,28.00
2023-05-15T17:21:37.834Z,34.50
2023-05-15T17:24:50.738Z,32.25
2023-05-15T17:27:54.446Z,30.75
2023-05-15T17:30:56.918Z,30.00
2023-05-15T17:34:00.568Z,30.00
2023-05-15T17:37:03.032Z,32.00
2023-05-15T17:40:07.187Z,33.25
2023-05-15T17:43:10.454Z,33.25
2023-05-15T17:46:13.414Z,31.75
2023-05-15T17:49:16.193Z,28.75
2023-05-15T17:52:18.930Z,32.00
2023-05-15T17:55:21.784Z,31.25
2023-05-15T17:58:24.780Z,31.50
2023-05-15T18:01:27.234Z,27.50
2023-05-15T18:04:31.046Z,27.25
2023-05-15T18:07:33.459Z,30.50
2023-05-15T18:10:36.255Z,29.25
2023-05-15T18:13:38.587Z,28.75
2023-05-15T18:16:41.805Z,29.25
2023-05-15T18:19:45.120Z,32.00
2023-05-15T18:22:48.021Z,31.00
2023-05-15T18:25:51.427Z,32.25
2023-05-15T18:28:54.502Z,29.75
2023-05-15T18:31:57.316Z,31.25
2023-05-15T18:35:01.658Z,29.00
2023-05-15T18:38:05.929Z,30.75
2023-05-15T18:41:09.235Z,34.00
2023-05-15T18:44:15.384Z,34.00
2023-05-15T18:47:19.268Z,33.75
2023-05-15T18:50:24.567Z,34.00
2023-05-15T18:53:27.430Z,33.25
2023-05-15T18:56:30.442Z,32.25
2023-05-15T18:59:33.398Z,31.50
2023-05-15T19:02:40.438Z,29.50
2023-05-15T19:05:43.850Z,29.00
2023-05-15T19:08:47.820Z,25.75
2023-05-15T19:11:52.981Z,24.25
2023-05-15T19:14:55.677Z,24.75
2023-05-15T19:17:58.597Z,24.50
2023-05-15T19:21:01.276Z,22.50
2023-05-15T19:24:05.297Z,19.75
2023-05-15T19:27:07.796Z,23.00
2023-05-15T19:30:11.134Z,20.50
2023-05-15T19:33:15.846Z,20.25
2023-05-15T19:36:19.032Z,19.75
2023-05-15T19:39:21.953Z,18.00
2023-05-15T19:42:24.925Z,17.00
2023-05-15T19:45:29.688Z,17.00
2023-05-15T19:48:32.787Z,17.25
2023-05-15T19:51:35.484Z,12.00
2023-05-15T19:54:38.441Z,17.25
2023-05-15T19:57:42.894Z,14.75
2023-05-15T20:00:46.586Z,10.75
2023-05-15T20:03:49.625Z,11.75
2023-05-15T20:06:55.395Z,12.50
2023-05-15T20:10:03.667Z,13.25
2023-05-15T20:13:06.949Z,11.00
2023-05-15T20:16:12.937Z,12.00
2023-05-15T20:19:17.192Z,5.50
2023-05-15T20:22:20.232Z,11.50
2023-05-15T20:25:24.337Z,10.25
2023-05-15T20:28:28.989Z,10.50
2023-05-15T20:31:32.121Z,9.50
2023-05-15T20:34:37.013Z,8.75
2023-05-15T20:37:43.125Z,11.25
2023-05-15T20:40:47.009Z,9.50
2023-05-15T20:43:54.053Z,11.50
2023-05-15T20:46:59.859Z,12.00
2023-05-15T20:50:03.011Z,11.00
2023-05-15T20:53:05.887Z,9.00
2023-05-15T20:56:09.484Z,11.00
2023-05-15T20:59:12.957Z,10.25
2023-05-15T21:02:16.233Z,10.75
2023-05-15T21:05:18.898Z,10.25
2023-05-15T21:08:22.114Z,11.50
2023-05-15T21:11:24.559Z,12.00
2023-05-15T21:14:27.348Z,11.00
2023-05-15T21:17:30.298Z,12.50
2023-05-15T21:20:35.012Z,12.75
2023-05-15T21:23:37.949Z,13.50
2023-05-15T21:26:40.761Z,10.75
2023-05-15T21:29:43.103Z,12.00
2023-05-15T21:32:45.974Z,14.25
2023-05-15T21:35:49.175Z,15.00
2023-05-15T21:38:51.912Z,14.75
2023-05-15T21:41:54.322Z,15.25
2023-05-15T21:44:57.281Z,16.75
2023-05-15T21:48:00.069Z,15.25
2023-05-15T21:51:03.827Z,16.50
2023-05-15T21:54:06.488Z,14.50
2023-05-15T21:57:09.328Z,16.00
2023-05-15T22:00:14.135Z,16.00
2023-05-15T22:03:18.319Z,14.75
2023-05-15T22:06:20.862Z,17.00
2023-05-15T22:09:23.619Z,16.00
2023-05-15T22:12:27.911Z,16.50
2023-05-15T22:15:30.731Z,18.00
2023-05-15T22:18:35.146Z,12.75
2023-05-15T22:21:38.040Z,15.50
2023-05-15T22:24:40.480Z,16.00
2023-05-15T22:27:43.289Z,15.25
2023-05-15T22:30:45.833Z,14.50
2023-05-15T22:33:48.881Z,14.25
2023-05-15T22:40:00.448Z,15.50
2023-05-15T22:43:02.954Z,13.00
2023-05-15T22:46:07.360Z,13.75
2023-05-15T22:49:10.188Z,13.75
2023-05-15T22:52:13.813Z,13.50
2023-05-15T22:55:17.610Z,12.50
2023-05-15T22:58:20.773Z,16.50
2023-05-15T23:01:23.396Z,16.00
2023-05-15T23:04:26.410Z,14.75
2023-05-15T23:07:28.960Z,15.00
2023-05-15T23:10:31.653Z,14.00
2023-05-15T23:13:34.148Z,14.25
2023-05-15T23:16:37.021Z,12.75
2023-05-15T23:19:40.320Z,16.25
2023-05-15T23:22:43.205Z,14.00
2023-05-15T23:25:45.820Z,13.00
2023-05-15T23:28:48.619Z,13.00
2023-05-15T23:31:51.103Z,13.75
2023-05-15T23:34:54.925Z,13.00
2023-05-15T23:37:57.390Z,15.00
2023-05-15T23:41:00.151Z,14.00
2023-05-15T23:44:02.593Z,15.00
2023-05-15T23:47:05.731Z,11.50
2023-05-15T23:50:08.724Z,15.25
2023-05-15T23:53:11.485Z,15.75
2023-05-15T23:56:13.921Z,15.75
2023-05-15T23:59:18.787Z,14.00
